Time;durP1;ratioP1;P1;durP2;ratioP2;P2;SDS_P1;SDS_P2;PMS_P1;PMS_P2;Temp;Humidity;BMP_temperature;BMP_pressure;BME280_temperature;BME280_humidity;BME280_pressure;Samples;Min_cycle;Max_cycle;Signal;HPM_P1;HPM_P2
2021/05/14 00:01:39;;;;;;;3.90;3.60;;;;;;;12.68;91.42;97846.23;1663608;85;21577;-60
2021/05/14 00:04:06;;;;;;;4.20;3.90;;;;;;;12.61;91.91;97844.17;1661260;86;21122;-57
2021/05/14 00:06:33;;;;;;;4.40;3.92;;;;;;;12.57;92.06;97837.63;1691208;84;20984;-56
2021/05/14 00:08:59;;;;;;;4.72;4.15;;;;;;;12.53;92.47;97843.95;1700435;84;21003;-57
2021/05/14 00:11:25;;;;;;;4.25;3.70;;;;;;;12.52;92.68;97840.15;1700309;84;21647;-56
2021/05/14 00:13:53;;;;;;;4.90;4.50;;;;;;;12.52;92.72;97843.64;1696180;84;21043;-56
2021/05/14 00:16:21;;;;;;;4.30;3.90;;;;;;;12.51;93.00;97845.20;1697086;84;21690;-55
2021/05/14 00:18:49;;;;;;;4.90;4.40;;;;;;;12.46;93.08;97835.21;1692667;84;20948;-58
2021/05/14 00:21:16;;;;;;;5.00;3.50;;;;;;;12.43;93.36;97840.98;1700573;84;20948;-54
2021/05/14 00:23:42;;;;;;;4.15;3.75;;;;;;;12.41;93.63;97840.91;1696227;84;21047;-56
2021/05/14 00:26:08;;;;;;;4.12;3.72;;;;;;;12.37;93.54;97835.19;1653114;86;21535;-55
2021/05/14 00:28:35;;;;;;;4.45;4.05;;;;;;;12.36;93.57;97831.70;1700475;84;21078;-56
2021/05/14 00:31:01;;;;;;;4.35;3.95;;;;;;;12.32;93.65;97829.20;1695031;84;20953;-54
2021/05/14 00:33:28;;;;;;;4.90;4.40;;;;;;;12.29;93.59;97835.48;1697785;84;20944;-54
2021/05/14 00:35:54;;;;;;;4.62;3.50;;;;;;;12.30;93.50;97831.27;1700585;84;20999;-56
2021/05/14 00:38:21;;;;;;;6.42;4.28;;;;;;;12.29;93.61;97844.30;1700621;84;21028;-57
2021/05/14 00:40:47;;;;;;;5.55;4.10;;;;;;;12.27;93.67;97831.70;1696404;84;21189;-55
2021/05/14 00:43:13;;;;;;;4.78;4.25;;;;;;;12.25;93.72;97828.42;1694036;84;21027;-55
2021/05/14 00:45:40;;;;;;;4.40;4.00;;;;;;;12.22;93.59;97837.40;1700638;84;21521;-55
2021/05/14 00:48:07;;;;;;;4.87;4.35;;;;;;;12.13;94.14;97833.38;1700564;84;20951;-57
2021/05/14 00:50:34;;;;;;;4.97;4.53;;;;;;;12.05;94.52;97841.64;1683047;83;21636;-55
2021/05/14 00:53:00;;;;;;;4.05;3.70;;;;;;;12.01;94.76;97847.12;1698215;83;21095;-55
2021/05/14 00:55:27;;;;;;;4.65;4.20;;;;;;;11.99;94.73;97836.66;1705888;83;21043;-58
2021/05/14 00:57:53;;;;;;;4.10;3.72;;;;;;;12.00;94.75;97838.81;1699973;84;21079;-56
2021/05/14 01:00:21;;;;;;;4.75;4.35;;;;;;;12.02;94.60;97837.56;1698600;84;21067;-58
2021/05/14 01:02:51;;;;;;;4.47;4.15;;;;;;;11.99;94.75;97843.33;1682299;84;21060;-56
2021/05/14 01:05:15;;;;;;;6.85;4.25;;;;;;;11.95;94.88;97846.14;1687151;85;21114;-56
2021/05/14 01:07:42;;;;;;;4.50;4.10;;;;;;;11.97;94.92;97844.58;1687260;84;21107;-57
2021/05/14 01:10:09;;;;;;;5.15;4.15;;;;;;;11.98;94.98;97845.71;1702704;84;21028;-57
2021/05/14 01:12:36;;;;;;;4.83;3.92;;;;;;;11.96;94.91;97855.78;1685236;84;21046;-58
2021/05/14 01:15:04;;;;;;;6.60;4.03;;;;;;;11.97;94.88;97853.91;1688084;85;20980;-57
2021/05/14 01:17:31;;;;;;;5.20;4.28;;;;;;;12.02;94.65;97849.56;1688013;84;21101;-59
2021/05/14 01:19:58;;;;;;;7.03;4.03;;;;;;;12.08;94.14;97854.54;1688014;84;20897;-59
2021/05/14 01:22:27;;;;;;;4.62;4.20;;;;;;;12.07;93.87;97855.05;1685143;84;21071;-55
2021/05/14 01:24:52;;;;;;;4.40;4.00;;;;;;;12.09;93.82;97860.18;1688078;84;21055;-57
2021/05/14 01:27:19;;;;;;;4.03;3.62;;;;;;;12.08;93.67;97859.87;1687818;84;21127;-56
2021/05/14 01:29:45;;;;;;;5.75;4.67;;;;;;;12.13;93.38;97865.36;1688081;85;21684;-58
2021/05/14 01:32:13;;;;;;;6.20;4.28;;;;;;;12.16;92.94;97854.27;1684057;85;21072;-58
2021/05/14 01:34:40;;;;;;;4.47;4.08;;;;;;;12.13;92.72;97851.52;1662907;85;21651;-55
2021/05/14 01:37:06;;;;;;;3.70;3.40;;;;;;;12.11;92.64;97841.60;1688046;85;21046;-59
2021/05/14 01:39:32;;;;;;;3.62;3.33;;;;;;;12.11;92.55;97842.93;1688075;85;21064;-56
2021/05/14 01:41:59;;;;;;;6.87;3.92;;;;;;;12.09;92.45;97842.34;1685607;85;21078;-59
2021/05/14 01:44:26;;;;;;;6.87;3.85;;;;;;;12.08;92.41;97847.36;1687881;84;21641;-56
2021/05/14 01:46:52;;;;;;;4.47;4.05;;;;;;;12.09;92.36;97841.02;1677800;84;21516;-57
2021/05/14 01:49:18;;;;;;;3.72;3.33;;;;;;;12.08;92.32;97847.88;1680330;85;20885;-57
2021/05/14 01:51:45;;;;;;;7.40;3.75;;;;;;;12.06;92.22;97834.78;1685275;85;21633;-55
2021/05/14 01:54:12;;;;;;;5.67;3.90;;;;;;;12.04;92.24;97833.37;1686928;84;21148;-54
2021/05/14 01:56:38;;;;;;;4.87;3.83;;;;;;;12.02;92.29;97842.90;1687981;84;20948;-55
2021/05/14 01:59:05;;;;;;;3.90;3.60;;;;;;;11.98;92.38;97844.89;1688035;85;20956;-55
2021/05/14 02:01:31;;;;;;;4.53;3.83;;;;;;;11.96;92.61;97840.30;1679156;83;20985;-55
2021/05/14 02:03:59;;;;;;;4.40;4.10;;;;;;;11.91;92.75;97831.64;1695667;83;20948;-55
2021/05/14 02:06:25;;;;;;;5.12;4.15;;;;;;;11.89;92.88;97836.89;1695430;83;21024;-55
2021/05/14 02:08:53;;;;;;;4.75;4.28;;;;;;;11.88;92.96;97837.91;1695348;82;21047;-55
2021/05/14 02:11:20;;;;;;;4.03;3.65;;;;;;;11.85;93.05;97846.33;1691715;84;21521;-54
2021/05/14 02:13:46;;;;;;;3.65;3.35;;;;;;;11.83;93.18;97848.41;1695498;83;21015;-54
2021/05/14 02:16:13;;;;;;;4.35;3.95;;;;;;;11.81;93.57;97842.48;1695436;84;21004;-58
2021/05/14 02:18:40;;;;;;;4.78;4.28;;;;;;;11.73;93.81;97848.91;1694795;84;21085;-55
2021/05/14 02:21:07;;;;;;;4.85;4.35;;;;;;;11.69;94.07;97851.68;1691180;83;21018;-55
2021/05/14 02:23:33;;;;;;;5.12;4.10;;;;;;;11.65;94.50;97850.47;1695035;83;20975;-55
2021/05/14 02:25:59;;;;;;;4.22;3.83;;;;;;;11.62;94.58;97844.23;1695527;83;21048;-55
2021/05/14 02:28:26;;;;;;;4.67;4.28;;;;;;;11.59;94.81;97851.31;1695453;83;20968;-55
2021/05/14 02:30:52;;;;;;;4.33;4.03;;;;;;;11.56;94.92;97853.90;1691615;83;21453;-55
2021/05/14 02:33:19;;;;;;;5.90;4.20;;;;;;;11.54;94.96;97854.63;1694531;83;20992;-58
2021/05/14 02:35:45;;;;;;;5.22;4.72;;;;;;;11.55;95.09;97848.80;1674785;83;20940;-54
2021/05/14 02:38:12;;;;;;;4.95;4.55;;;;;;;11.54;95.22;97855.97;1695362;84;21044;-54
2021/05/14 02:40:39;;;;;;;4.10;3.70;;;;;;;11.51;95.43;97854.23;1692723;83;21572;-54
2021/05/14 02:43:05;;;;;;;5.53;3.75;;;;;;;11.49;95.63;97854.97;1701131;83;21104;-57
2021/05/14 02:45:32;;;;;;;3.77;3.42;;;;;;;11.47;95.88;97851.17;1704856;83;20984;-54
2021/05/14 02:47:58;;;;;;;5.60;4.10;;;;;;;11.46;96.05;97848.23;1695592;83;21009;-58
2021/05/14 02:50:24;;;;;;;4.35;3.87;;;;;;;11.45;96.09;97849.25;1694155;82;21008;-54
2021/05/14 02:52:51;;;;;;;4.42;4.03;;;;;;;11.46;96.16;97845.57;1693143;84;20924;-55
2021/05/14 02:55:17;;;;;;;3.90;3.60;;;;;;;11.50;96.22;97845.94;1695326;84;21094;-55
2021/05/14 02:57:44;;;;;;;3.98;3.58;;;;;;;11.51;96.16;97844.92;1687062;83;21142;-55
2021/05/14 03:00:12;;;;;;;6.25;3.95;;;;;;;11.58;96.14;97861.66;1664514;84;20896;-56
2021/05/14 03:02:39;;;;;;;5.47;3.80;;;;;;;11.64;95.91;97852.30;1695892;83;21529;-55
2021/05/14 03:05:07;;;;;;;4.03;3.72;;;;;;;11.65;95.75;97852.59;1716935;83;21022;-57
2021/05/14 03:07:34;;;;;;;4.25;3.85;;;;;;;11.66;95.76;97852.90;1710728;83;21078;-54
2021/05/14 03:10:00;;;;;;;4.40;3.92;;;;;;;11.71;95.84;97858.94;1715668;83;20982;-57
2021/05/14 03:12:27;;;;;;;6.22;3.50;;;;;;;11.73;95.76;97856.89;1706446;83;21586;-55
2021/05/14 03:14:54;;;;;;;4.42;4.00;;;;;;;11.81;95.76;97852.60;1718142;83;21001;-55
2021/05/14 03:17:21;;;;;;;5.20;4.10;;;;;;;12.04;95.19;97854.69;1718256;83;20933;-56
2021/05/14 03:19:47;;;;;;;4.50;3.55;;;;;;;12.15;93.97;97848.66;1718321;83;21991;-55
2021/05/14 03:22:13;;;;;;;4.40;4.00;;;;;;;12.18;93.25;97844.19;1713672;83;20986;-57
2021/05/14 03:24:40;;;;;;;4.60;4.20;;;;;;;12.19;93.02;97855.16;1718272;83;21013;-55
2021/05/14 03:27:06;;;;;;;4.30;3.90;;;;;;;12.17;92.84;97856.73;1716434;83;21603;-55
2021/05/14 03:29:32;;;;;;;4.67;4.22;;;;;;;12.13;92.93;97855.52;1711129;83;20979;-55
2021/05/14 03:31:59;;;;;;;4.95;4.10;;;;;;;12.13;93.14;97854.70;1724237;81;21190;-54
2021/05/14 03:34:25;;;;;;;4.22;3.85;;;;;;;12.10;93.15;97858.61;1718833;83;21626;-54
2021/05/14 03:36:51;;;;;;;3.85;3.52;;;;;;;12.13;93.23;97856.03;1718184;83;21609;-57
2021/05/14 03:39:22;;;;;;;4.28;3.85;;;;;;;12.16;93.24;97859.08;1718224;83;20934;-55
2021/05/14 03:42:03;;;;;;;4.42;4.03;;;;;;;12.22;93.25;97864.06;1714139;83;20971;-54
2021/05/14 03:44:20;;;;;;;5.40;4.00;;;;;;;12.24;93.08;97856.65;1715358;82;21193;-58
2021/05/14 03:46:46;;;;;;;4.72;4.20;;;;;;;12.25;93.11;97865.75;1718117;82;21599;-55
2021/05/14 03:49:12;;;;;;;5.35;3.37;;;;;;;12.28;93.04;97859.16;1718277;83;21059;-56
2021/05/14 03:51:39;;;;;;;6.35;4.15;;;;;;;12.30;92.95;97863.27;1714716;83;20918;-54
2021/05/14 03:54:06;;;;;;;6.10;3.80;;;;;;;12.29;92.93;97856.30;1718174;83;21057;-55
2021/05/14 03:56:32;;;;;;;4.03;3.62;;;;;;;12.28;93.03;97864.49;1714342;83;21442;-57
2021/05/14 03:59:00;;;;;;;6.10;3.80;;;;;;;12.26;93.13;97864.73;1705024;83;20939;-54
2021/05/14 04:01:28;;;;;;;4.62;3.80;;;;;;;12.26;93.27;97863.91;1664771;84;20953;-55
2021/05/14 04:03:54;;;;;;;5.40;4.15;;;;;;;12.26;93.50;97859.39;1656412;85;21017;-54
2021/05/14 04:06:21;;;;;;;5.30;4.20;;;;;;;12.28;93.41;97861.31;1698775;83;20917;-53
2021/05/14 04:08:49;;;;;;;5.03;3.72;;;;;;;12.31;93.46;97857.39;1688148;83;22764;-55
2021/05/14 04:16:27;;;;;;;4.50;4.10;;;;;;;12.38;93.11;97852.83;1680701;84;21596;-57
2021/05/14 04:18:53;;;;;;;4.37;3.98;;;;;;;12.42;93.21;97856.67;1674196;84;20991;-54
2021/05/14 04:21:20;;;;;;;7.17;4.20;;;;;;;12.43;93.09;97855.65;1683423;83;21129;-56
2021/05/14 04:23:46;;;;;;;4.45;3.92;;;;;;;12.45;93.11;97860.23;1680673;83;21722;-55
2021/05/14 04:26:12;;;;;;;4.95;4.47;;;;;;;12.51;92.75;97850.03;1685391;83;20995;-54
2021/05/14 04:28:40;;;;;;;4.42;3.72;;;;;;;12.55;92.46;97855.20;1683536;84;20999;-54
2021/05/14 04:31:06;;;;;;;5.05;4.25;;;;;;;12.60;92.39;97854.53;1688172;83;21584;-54
2021/05/14 04:33:32;;;;;;;4.42;4.12;;;;;;;12.67;92.18;97852.63;1694523;83;21050;-57
2021/05/14 04:35:59;;;;;;;5.12;4.72;;;;;;;12.71;92.35;97851.13;1699506;84;21632;-55
2021/05/14 04:38:25;;;;;;;5.37;4.37;;;;;;;12.82;92.15;97854.39;1688942;84;20983;-54
2021/05/14 04:40:51;;;;;;;5.70;4.15;;;;;;;12.89;91.46;97853.28;1694420;83;21319;-55
2021/05/14 04:43:20;;;;;;;4.25;3.85;;;;;;;12.92;91.40;97852.02;1700846;83;20940;-54
2021/05/14 04:45:46;;;;;;;4.90;4.50;;;;;;;12.98;91.20;97856.47;1673445;84;21838;-55
2021/05/14 04:48:13;;;;;;;4.40;4.00;;;;;;;13.02;91.30;97854.96;1682644;83;21011;-57
2021/05/14 04:50:39;;;;;;;5.08;3.95;;;;;;;13.12;91.03;97854.45;1696980;84;21102;-54
2021/05/14 04:53:11;;;;;;;6.42;4.60;;;;;;;13.23;90.20;97851.02;1675057;84;21489;-53
2021/05/14 04:55:37;;;;;;;4.35;3.95;;;;;;;13.31;89.74;97858.20;1679519;84;21057;-55
2021/05/14 04:58:03;;;;;;;6.47;4.55;;;;;;;13.49;89.57;97856.82;1644294;85;21069;-56
2021/05/14 05:00:30;;;;;;;7.72;4.00;;;;;;;13.80;87.37;97855.73;1615907;87;20972;-54
2021/05/14 05:02:56;;;;;;;5.15;4.50;;;;;;;14.25;86.65;97843.98;1614674;86;21559;-55
2021/05/14 05:05:23;;;;;;;4.90;4.08;;;;;;;14.98;83.04;97846.12;1635086;86;21028;-56
2021/05/14 05:07:49;;;;;;;3.87;3.52;;;;;;;15.46;79.32;97847.88;1610925;87;20948;-57
2021/05/14 05:10:15;;;;;;;5.20;4.10;;;;;;;15.93;78.06;97842.53;1648242;86;21704;-54
2021/05/14 05:12:42;;;;;;;4.20;3.80;;;;;;;16.97;72.31;97854.81;1662625;85;20906;-56
2021/05/14 05:15:10;;;;;;;4.05;3.65;;;;;;;17.77;68.39;97850.34;1662255;85;21605;-54
2021/05/14 05:17:38;;;;;;;4.40;3.83;;;;;;;18.45;66.77;97838.77;1651042;85;21056;-54
2021/05/14 05:20:06;;;;;;;4.33;3.92;;;;;;;19.17;64.04;97851.53;1662113;85;21062;-53
2021/05/14 05:22:33;;;;;;;5.65;3.90;;;;;;;19.81;60.93;97830.95;1662697;85;21675;-60
2021/05/14 05:24:59;;;;;;;6.58;3.85;;;;;;;20.40;58.17;97827.98;1648704;85;21048;-54
2021/05/14 05:27:26;;;;;;;4.45;3.10;;;;;;;20.47;56.61;97835.78;1637823;86;21106;-64
2021/05/14 05:29:52;;;;;;;4.05;2.92;;;;;;;20.25;57.53;97851.77;1656082;86;22244;-58
2021/05/14 05:32:19;;;;;;;3.50;3.20;;;;;;;20.68;56.74;97832.77;1662837;85;21066;-58
2021/05/14 05:34:45;;;;;;;4.28;3.90;;;;;;;21.39;55.19;97824.41;1656308;86;21067;-57
2021/05/14 05:37:11;;;;;;;3.45;2.95;;;;;;;21.91;51.68;97830.05;1656167;86;20996;-60
2021/05/14 05:39:38;;;;;;;6.75;3.47;;;;;;;21.78;53.27;97823.06;1656368;86;20945;-61
2021/05/14 05:42:05;;;;;;;4.92;3.25;;;;;;;22.34;52.28;97831.58;1651689;85;21516;-56
2021/05/14 05:44:32;;;;;;;3.55;3.20;;;;;;;22.91;50.35;97816.64;1663196;85;21116;-62
2021/05/14 05:46:58;;;;;;;3.30;3.05;;;;;;;23.17;48.84;97823.37;1655041;85;21918;-58
2021/05/14 05:49:25;;;;;;;3.52;3.22;;;;;;;23.10;48.64;97822.89;1661382;85;20998;-56
2021/05/14 05:51:53;;;;;;;4.03;3.47;;;;;;;23.30;48.34;97837.58;1653844;85;20954;-57
2021/05/14 05:54:19;;;;;;;3.37;3.08;;;;;;;23.07;47.22;97846.52;1662970;85;20951;-61
2021/05/14 05:56:46;;;;;;;3.55;3.25;;;;;;;22.27;48.90;97845.98;1653765;85;21607;-58
2021/05/14 05:59:16;;;;;;;4.08;3.77;;;;;;;21.63;50.38;97837.52;1659787;85;21127;-58
2021/05/14 06:01:41;;;;;;;4.87;3.80;;;;;;;21.41;51.29;97843.86;1656247;85;20958;-62
2021/05/14 06:04:08;;;;;;;4.30;3.85;;;;;;;21.08;52.50;97838.63;1659398;85;21001;-62
2021/05/14 06:06:34;;;;;;;3.27;2.98;;;;;;;20.90;52.91;97839.20;1705142;83;21003;-58
2021/05/14 06:09:03;;;;;;;2.92;2.70;;;;;;;21.00;53.84;97835.64;1699836;83;20917;-59
2021/05/14 06:11:29;;;;;;;3.85;3.50;;;;;;;21.68;52.78;97840.19;1708009;83;21080;-54
2021/05/14 06:13:55;;;;;;;5.35;3.40;;;;;;;22.43;50.92;97835.27;1699667;83;21024;-56
2021/05/14 06:16:22;;;;;;;4.10;3.70;;;;;;;23.03;49.27;97838.72;1669725;85;20980;-50
2021/05/14 06:18:51;;;;;;;4.85;3.45;;;;;;;22.84;48.11;97837.84;1706537;81;21094;-55
2021/05/14 06:21:17;;;;;;;4.97;3.17;;;;;;;22.36;50.08;97838.88;1712702;81;21612;-49
2021/05/14 06:23:44;;;;;;;4.20;3.42;;;;;;;22.66;50.02;97850.24;1693415;83;21200;-57
2021/05/14 06:26:10;;;;;;;3.72;3.30;;;;;;;23.23;48.44;97843.10;1695704;83;21005;-58
2021/05/14 06:28:37;;;;;;;5.22;3.55;;;;;;;23.68;47.66;97837.06;1698961;83;20979;-60
2021/05/14 06:31:03;;;;;;;5.55;3.58;;;;;;;24.10;46.96;97834.81;1697620;83;21112;-60
2021/05/14 06:33:29;;;;;;;4.40;3.72;;;;;;;24.38;46.12;97838.41;1709526;83;20930;-59
2021/05/14 06:36:00;;;;;;;5.72;3.95;;;;;;;24.35;45.75;97841.17;1710615;82;21093;-57
2021/05/14 06:38:24;;;;;;;5.87;4.30;;;;;;;24.65;45.31;97839.02;1710317;83;21794;-57
2021/05/14 06:40:50;;;;;;;6.10;3.30;;;;;;;25.14;44.50;97835.09;1708550;83;21013;-57
2021/05/14 06:43:17;;;;;;;8.63;3.98;;;;;;;25.40;42.78;97836.72;1659318;85;21020;-57
2021/05/14 06:45:44;;;;;;;3.72;3.10;;;;;;;25.31;42.93;97834.48;1659916;85;21008;-57
2021/05/14 06:48:13;;;;;;;5.20;2.83;;;;;;;25.36;43.24;97839.26;1657579;85;21048;-58
2021/05/14 06:50:39;;;;;;;3.40;3.02;;;;;;;25.37;42.48;97843.57;1658843;85;20912;-57
2021/05/14 06:53:05;;;;;;;5.33;3.50;;;;;;;25.60;42.04;97847.21;1659105;85;21554;-56
2021/05/14 06:55:33;;;;;;;3.72;3.52;;;;;;;25.93;41.49;97847.25;1636168;86;21069;-58
2021/05/14 06:58:03;;;;;;;4.08;3.60;;;;;;;26.33;40.16;97847.64;1635131;86;21061;-59
2021/05/14 07:00:31;;;;;;;3.75;3.42;;;;;;;26.04;40.66;97851.91;1635826;86;21175;-58
2021/05/14 07:02:59;;;;;;;4.17;3.50;;;;;;;25.80;41.38;97853.55;1635536;86;21014;-56
2021/05/14 07:05:25;;;;;;;7.17;3.22;;;;;;;25.63;40.75;97846.02;1628969;86;21121;-57
2021/05/14 07:07:53;;;;;;;3.77;3.22;;;;;;;25.54;40.43;97854.69;1678210;83;21037;-56
2021/05/14 07:10:19;;;;;;;4.53;3.92;;;;;;;25.04;41.81;97854.34;1674552;83;21187;-57
2021/05/14 07:12:46;;;;;;;7.37;3.67;;;;;;;24.62;42.30;97845.86;1676815;84;21113;-56
2021/05/14 07:15:13;;;;;;;3.85;3.47;;;;;;;24.18;43.71;97852.34;1638039;85;21020;-58
2021/05/14 07:17:40;;;;;;;6.28;4.20;;;;;;;24.07;44.45;97857.09;1635920;85;20969;-56
2021/05/14 07:20:08;;;;;;;4.30;3.70;;;;;;;23.90;44.02;97861.72;1635787;85;21084;-56
2021/05/14 07:22:39;;;;;;;3.25;2.90;;;;;;;23.12;45.57;97864.12;1642482;85;21012;-57
2021/05/14 07:25:07;;;;;;;4.75;3.05;;;;;;;22.68;46.37;97867.02;1635833;85;21593;-56
2021/05/14 07:27:33;;;;;;;3.92;3.62;;;;;;;22.24;48.05;97861.47;1617072;86;21090;-57
2021/05/14 07:30:00;;;;;;;4.65;4.28;;;;;;;21.95;49.06;97862.78;1617606;87;20970;-57
2021/05/14 07:32:26;;;;;;;4.53;4.12;;;;;;;21.68;50.75;97869.14;1616425;86;22287;-56
2021/05/14 07:34:53;;;;;;;7.55;5.05;;;;;;;21.42;51.77;97873.89;1619344;87;21119;-59
2021/05/14 07:37:20;;;;;;;4.10;3.72;;;;;;;21.20;52.17;97866.67;1627227;86;21106;-59
2021/05/14 07:39:47;;;;;;;4.60;4.20;;;;;;;20.97;52.44;97868.09;1638008;85;21101;-64
2021/05/14 07:42:13;;;;;;;4.78;3.42;;;;;;;21.28;52.06;97864.75;1677019;84;21065;-63
2021/05/14 07:44:40;;;;;;;3.90;3.60;;;;;;;21.56;51.88;97865.98;1640761;86;20905;-64
2021/05/14 07:47:08;;;;;;;4.28;3.50;;;;;;;22.16;51.42;97865.56;1661147;85;21638;-62
2021/05/14 07:49:34;;;;;;;6.08;4.37;;;;;;;22.59;50.11;97863.84;1660917;86;21087;-63
2021/05/14 07:52:00;;;;;;;6.75;4.35;;;;;;;22.79;48.75;97865.02;1661625;86;21104;-63
2021/05/14 07:54:27;;;;;;;3.52;3.22;;;;;;;22.87;47.86;97860.86;1660654;85;21124;-61
2021/05/14 07:56:53;;;;;;;6.80;4.10;;;;;;;22.73;48.85;97864.83;1661028;86;21159;-61
2021/05/14 07:59:20;;;;;;;3.42;3.12;;;;;;;22.68;49.09;97862.17;1661718;85;21024;-61
2021/05/14 08:01:47;;;;;;;3.65;3.33;;;;;;;22.21;48.81;97879.64;1660984;85;21096;-62
2021/05/14 08:04:14;;;;;;;3.40;3.10;;;;;;;21.63;49.11;97877.30;1662321;85;21040;-61
2021/05/14 08:06:40;;;;;;;4.10;2.87;;;;;;;20.98;50.69;97871.61;1661442;85;21572;-61
2021/05/14 08:09:10;;;;;;;4.47;3.45;;;;;;;20.80;52.22;97874.37;1662484;85;20997;-61
2021/05/14 08:11:35;;;;;;;4.15;3.22;;;;;;;20.89;52.52;97876.23;1661452;85;20963;-62
2021/05/14 08:14:03;;;;;;;4.58;3.10;;;;;;;20.99;52.50;97875.37;1662448;85;21272;-61
2021/05/14 08:16:29;;;;;;;4.03;3.15;;;;;;;21.08;51.78;97882.42;1662001;85;21629;-61
2021/05/14 08:18:56;;;;;;;4.05;3.65;;;;;;;20.97;53.03;97878.09;1661767;85;21067;-61
2021/05/14 08:21:23;;;;;;;5.30;3.47;;;;;;;20.86;53.67;97870.55;1662113;86;21607;-62
2021/05/14 08:23:50;;;;;;;5.92;3.62;;;;;;;20.99;53.50;97876.73;1661251;86;21503;-60
2021/05/14 08:26:16;;;;;;;3.83;3.40;;;;;;;21.21;53.67;97876.42;1662322;86;21073;-63
2021/05/14 08:28:42;;;;;;;4.47;2.90;;;;;;;21.40;51.69;97876.07;1661073;86;21064;-61
2021/05/14 08:31:09;;;;;;;4.60;2.72;;;;;;;21.24;51.73;97875.33;1662178;85;21014;-63
2021/05/14 08:33:35;;;;;;;2.60;1.92;;;;;;;21.08;51.87;97866.19;1647411;85;21566;-62
2021/05/14 08:36:01;;;;;;;3.00;1.65;;;;;;;21.12;49.85;97867.28;1657974;85;20980;-62
2021/05/14 08:38:28;;;;;;;3.60;1.10;;;;;;;20.90;48.35;97865.69;1656052;86;21349;-61
2021/05/14 08:40:54;;;;;;;3.95;2.30;;;;;;;20.58;47.38;97865.22;1661614;86;21657;-61
2021/05/14 08:43:22;;;;;;;3.33;2.15;;;;;;;20.20;50.80;97868.48;1661685;86;20917;-61
2021/05/14 08:45:49;;;;;;;12.03;2.33;;;;;;;19.95;52.60;97867.10;1661632;86;21032;-61
2021/05/14 08:48:16;;;;;;;4.85;2.58;;;;;;;20.00;54.30;97869.80;1661630;86;20988;-60
2021/05/14 08:50:43;;;;;;;2.22;2.02;;;;;;;19.95;54.15;97866.56;1661677;86;21723;-61
2021/05/14 08:53:09;;;;;;;5.75;1.95;;;;;;;19.85;54.32;97863.86;1661595;86;21069;-61
2021/05/14 08:55:36;;;;;;;3.15;2.10;;;;;;;19.90;54.65;97864.40;1661735;86;21035;-61
2021/05/14 08:58:03;;;;;;;2.62;1.30;;;;;;;19.89;54.16;97868.19;1661765;86;21048;-61
2021/05/14 09:00:31;;;;;;;1.40;1.10;;;;;;;19.95;50.32;97872.50;1661635;86;21028;-64
2021/05/14 09:02:57;;;;;;;1.47;1.05;;;;;;;20.32;51.43;97879.83;1661700;86;21697;-62
2021/05/14 09:05:33;;;;;;;3.72;1.30;;;;;;;20.32;51.43;97879.83;1661406;85;21067;-65
2021/05/14 09:08:00;;;;;;;3.52;1.62;;;;;;;20.69;50.98;97866.83;1661789;86;20945;-62
2021/05/14 09:10:29;;;;;;;1.60;1.32;;;;;;;21.08;49.13;97863.49;1661606;86;21076;-62
2021/05/14 09:12:55;;;;;;;1.87;0.82;;;;;;;21.29;47.43;97867.20;1661543;86;21001;-63
2021/05/14 09:15:31;;;;;;;2.62;1.45;;;;;;;21.52;47.30;97861.13;1661574;86;21113;-63
2021/05/14 09:18:20;;;;;;;1.70;1.27;;;;;;;21.99;47.33;97854.34;1661282;86;21119;-68
2021/05/14 09:20:59;;;;;;;2.45;1.27;;;;;;;22.34;46.23;97865.44;1661434;85;20942;-66
2021/05/14 09:23:35;;;;;;;0.60;0.60;;;;;;;22.44;45.68;97862.09;1661588;86;20980;-62
2021/05/14 09:26:11;;;;;;;2.92;0.93;;;;;;;22.86;42.61;97849.78;1661872;86;26509;-62
2021/05/14 09:28:43;;;;;;;4.60;0.80;;;;;;;23.20;42.61;97857.23;1661882;86;21728;-65
2021/05/14 09:31:28;;;;;;;3.45;0.80;;;;;;;23.42;40.61;97856.70;1661596;86;20924;-65
2021/05/14 09:33:58;;;;;;;2.77;1.00;;;;;;;23.45;39.39;97856.94;1661586;86;21597;-62
2021/05/14 09:36:30;;;;;;;2.12;0.93;;;;;;;23.11;39.67;97854.35;1661635;86;21008;-65
2021/05/14 09:39:01;;;;;;;1.70;1.12;;;;;;;23.01;41.58;97861.80;1661631;86;21045;-64
2021/05/14 09:41:35;;;;;;;3.60;1.95;;;;;;;22.85;40.98;97857.09;1661624;86;21524;-61
2021/05/14 09:44:06;;;;;;;2.62;1.10;;;;;;;22.74;41.98;97856.94;1661502;86;21000;-63
2021/05/14 09:46:39;;;;;;;3.37;1.20;;;;;;;22.70;42.60;97856.72;1661678;86;20957;-66
2021/05/14 09:49:13;;;;;;;1.70;1.37;;;;;;;22.65;42.80;97864.91;1661704;86;21044;-62
2021/05/14 09:51:51;;;;;;;1.40;1.20;;;;;;;22.49;43.65;97856.63;1661724;86;20933;-62
2021/05/14 09:54:34;;;;;;;2.55;1.15;;;;;;;22.46;43.93;97870.74;1661504;86;21850;-61
2021/05/14 10:00:05;;;;;;;2.40;1.53;;;;;;;21.77;44.78;97873.67;1661812;86;21478;-60
2021/05/14 10:02:37;;;;;;;2.85;1.42;;;;;;;21.58;45.84;97868.67;1661756;86;21004;-61
2021/05/14 10:05:13;;;;;;;3.40;1.62;;;;;;;21.53;46.51;97863.29;1661604;85;21008;-64
2021/05/14 10:07:41;;;;;;;;;;;;;;;21.51;47.10;97867.61;1664204;86;21714;-61
2021/05/14 10:10:09;;;;;;;2.58;1.50;;;;;;;21.59;47.22;97860.80;1661530;86;20241;-61
2021/05/14 10:12:36;;;;;;;3.58;1.25;;;;;;;21.67;46.78;97858.05;1661696;86;20972;-62
2021/05/14 10:15:11;;;;;;;5.33;1.40;;;;;;;21.72;46.25;97856.69;1661656;86;21008;-61
2021/05/14 10:17:39;;;;;;;2.35;1.30;;;;;;;21.63;46.69;97863.23;1661690;86;20988;-61
2021/05/14 10:20:10;;;;;;;1.67;1.57;;;;;;;21.48;47.36;97867.37;1661581;86;21108;-61
2021/05/14 10:22:37;;;;;;;3.67;1.60;;;;;;;21.42;47.13;97864.42;1661040;86;21021;-61
2021/05/14 10:25:06;;;;;;;4.83;1.55;;;;;;;21.42;47.25;97867.13;1661659;86;20972;-61
2021/05/14 10:27:46;;;;;;;2.50;1.80;;;;;;;21.43;47.06;97868.19;1661690;86;21035;-60
2021/05/14 10:30:14;;;;;;;4.80;1.77;;;;;;;21.42;46.63;97877.95;1661665;86;21478;-62
2021/05/14 10:32:49;;;;;;;3.22;1.37;;;;;;;21.24;46.79;97875.33;1661614;86;21079;-61
2021/05/14 10:35:27;;;;;;;4.30;1.72;;;;;;;21.20;46.73;97877.49;1661776;86;21645;-64
2021/05/14 10:38:04;;;;;;;3.35;1.85;;;;;;;21.18;46.56;97875.61;1643402;86;21032;-63
2021/05/14 10:40:37;;;;;;;3.60;1.87;;;;;;;21.14;47.15;97875.91;1661711;86;21043;-62
2021/05/14 10:43:05;;;;;;;1.52;1.07;;;;;;;21.11;47.16;97881.33;1661679;86;20964;-62
2021/05/14 10:45:40;;;;;;;2.87;1.17;;;;;;;21.05;47.37;97875.64;1662546;85;21587;-64
2021/05/14 10:48:18;;;;;;;4.42;1.20;;;;;;;20.98;47.40;97876.48;1661642;86;21060;-62
2021/05/14 10:50:52;;;;;;;1.20;0.82;;;;;;;20.95;47.69;97875.67;1661583;86;21029;-64
2021/05/14 10:53:37;;;;;;;1.70;1.00;;;;;;;20.99;47.32;97878.65;1661471;86;21011;-63
2021/05/14 10:56:22;;;;;;;2.10;1.00;;;;;;;20.97;47.31;97880.80;1661466;85;21024;-62
2021/05/14 10:59:02;;;;;;;1.80;1.00;;;;;;;20.92;46.82;97874.86;1661809;86;21320;-62
2021/05/14 11:01:36;;;;;;;3.37;1.00;;;;;;;20.86;46.25;97875.42;1661590;86;21040;-63
2021/05/14 11:04:18;;;;;;;1.67;0.82;;;;;;;20.80;45.87;97875.72;1661667;86;21613;-64
2021/05/14 11:06:48;;;;;;;1.02;0.78;;;;;;;20.64;46.72;97879.53;1654841;86;21589;-66
2021/05/14 11:09:16;;;;;;;1.60;0.90;;;;;;;20.33;46.56;97885.52;1654173;86;20992;-61
2021/05/14 11:12:06;;;;;;;0.65;0.65;;;;;;;20.04;46.83;97877.65;1654160;84;21012;-61
2021/05/14 11:14:48;;;;;;;1.10;0.85;;;;;;;19.35;51.60;97875.84;1654239;86;21016;-62
2021/05/14 11:17:16;;;;;;;1.45;0.90;;;;;;;19.35;51.60;97875.84;1654191;86;20989;-62
2021/05/14 11:19:52;;;;;;;0.85;0.70;;;;;;;19.15;52.10;97872.55;1654102;84;21064;-64
2021/05/14 11:22:36;;;;;;;0.85;0.60;;;;;;;19.10;51.99;97877.39;1657376;85;21560;-61
2021/05/14 11:25:16;;;;;;;0.70;0.70;;;;;;;19.10;52.32;97877.92;1656600;86;21673;-65
2021/05/14 11:27:43;;;;;;;1.50;0.72;;;;;;;19.21;51.96;97868.00;1592088;88;21484;-62
2021/05/14 11:30:13;;;;;;;0.65;0.57;;;;;;;19.26;52.62;97866.66;1639324;87;20932;-62
2021/05/14 11:32:41;;;;;;;2.45;1.20;;;;;;;19.25;53.05;97865.84;1639386;87;21000;-63
2021/05/14 11:35:27;;;;;;;1.70;1.30;;;;;;;19.16;57.64;97868.80;1639309;87;21036;-66
2021/05/14 11:37:58;;;;;;;2.25;1.20;;;;;;;19.16;58.57;97867.45;1639485;87;21332;-64
2021/05/14 11:40:31;;;;;;;2.02;1.05;;;;;;;19.19;56.32;97864.76;1639310;87;21086;-62
2021/05/14 11:42:59;;;;;;;2.08;1.32;;;;;;;19.37;56.95;97867.80;1639237;87;21066;-61
2021/05/14 11:45:36;;;;;;;2.15;1.20;;;;;;;19.65;57.37;97859.26;1639199;87;20975;-62
2021/05/14 11:48:01;;;;;;;2.15;1.10;;;;;;;19.88;51.58;97863.86;1653190;86;21616;-64